Station: Kadina

  Atmospheric Gas Attenuation - ITU Rec 676-11   --------------- db/100km ---------------
Date Time Temp RH % AH g/m3 Dew Point Wind Direction Speed kph Gust kph Barometer mB Rainfall Since 9am 24GHz 47GHz 76GHz 122GHz 134GHz 241GHz
27 12:20 16.2 44 6.07 3.9 13 17 1025.5 0 14.1 21.8 29.7 77.4 65.3 222.5
27 12:10 15.9 45 6.09 4 11 13 1025.6 0 14.2 21.9 29.9 77.8 65.8 224.2
27 12:00 16.5 46 6.46 4.9 13 24 1025.7 0 14.9 22.3 31.0 80.8 69.6 237.8
27 11:50 16.3 49 6.8 5.6 11 13 1025.7 0 15.7 22.9 32.3 84.3 73.9 252.7
27 11:40 16.4 48 6.7 5.4 17 20 1025.9 0 15.4 22.7 31.9 83.2 72.6 248.2
27 11:30 16.1 47 6.44 4.8 17 26 1026.1 0 14.9 22.4 31.1 81.0 69.8 238.3
27 11:20 16 50 6.81 5.6 19 20 1026.1 0 15.7 23.0 32.5 84.7 74.3 254.1
27 11:10 15.6 50 6.65 5.2 19 24 1026.2 0 15.4 22.9 32.1 83.6 72.7 248.6
27 11:00 15 49 6.28 4.4 13 24 1026.5 0 14.6 22.5 30.9 80.6 68.8 234.8
27 10:50 15.1 51 6.58 5 11 13 1026.5 0 15.2 22.9 32.0 83.5 72.4 247.2
27 10:40 15 54 6.92 5.8 11 15 1026.6 0 16.0 23.4 33.3 86.9 76.6 262.2
27 10:30 14.9 53 6.75 5.4 15 24 1026.8 0 15.6 23.2 32.7 85.4 74.6 255.2
27 10:20 14.9 55 7.01 6 17 20 1026.7 0 16.1 23.6 33.7 88.0 77.8 266.4
27 10:10 14.9 57 7.26 6.5 17 19 1026.8 0 16.7 24.0 34.6 90.5 80.9 277.3
27 10:00 14.4 59 7.29 6.5 17 26 1027.1 0 16.8 24.2 35.0 91.4 81.9 280.5
27 09:50 14.1 61 7.4 6.7 17 19 1027 0 17.0 24.4 35.5 92.9 83.6 286.4
27 09:40 13.9 63 7.55 7 15 17 1027.2 0 17.3 24.7 36.2 94.7 85.7 293.9
27 09:30 13.2 66 7.58 7 13 19 1027.5 0 17.4 25.0 36.7 95.8 86.9 297.9
27 09:20 13 69 7.83 7.5 9 11 1027.4 0 18.0 25.4 37.7 98.7 90.4 310.1
27 09:10 12.7 74 8.24 8.2 9 11 1027.4 0 18.9 26.2 39.5 103.5 96.1 330.3
27 09:00 12.1 75 8.04 7.8 11 13 1027.6 0 18.5 26.0 39.0 102.1 94.2 323.5
27 08:50 11.7 77 8.05 7.8 13 13 1027.5 0.2 18.5 26.1 39.3 102.8 94.8 325.5
27 08:40 11.2 84 8.52 8.6 9 11 1027.6 0.2 19.5 27.1 41.5 108.6 101.9 350.1
27 08:30 10.1 85 8.04 7.7 11 13 1027.7 0.2 18.6 26.6 40.0 104.8 96.7 331.8
27 08:20 9.4 89 8.05 7.7 11 13 1027.5 0.2 18.6 26.8 40.4 105.8 97.7 335.3
27 08:10 8.8 91 7.92 7.4 11 13 1027.5 0.2 18.4 26.8 40.2 105.2 96.6 331.5
27 08:00 8.2 93 7.79 7.1 13 17 1027.6 0.2 18.1 26.8 39.9 104.5 95.6 327.7
27 07:50 7 94 7.29 6.1 9 11 1027.5 0.2 17.1 26.3 38.4 100.4 90.1 308.1
27 07:40 6 94 6.83 5.1 11 13 1027.4 0.2 16.1 25.8 36.9 96.5 84.8 289.5
27 07:30 5.4 94 6.56 4.5 11 13 1027.4 0.2 15.6 25.5 36.1 94.2 81.7 278.6
27 07:20 5.2 95 6.55 4.5 11 13 1027.2 0.2 15.6 25.5 36.1 94.3 81.8 278.8
27 07:10 4.4 95 6.21 3.7 9 9 1027 0.2 14.9 25.2 35.0 91.4 77.9 265.0
27 07:00 3.7 95 5.93 3 9 11 1027 0.2 14.3 24.9 34.2 89.1 74.7 253.8
27 06:50 2.8 95 5.58 2.1 9 9 1026.9 0.2 13.6 24.6 33.1 86.2 70.7 239.7
27 06:40 2 95 5.28 1.3 11 11 1026.8 0.2 12.9 24.3 32.2 83.7 67.3 227.6
27 06:30 1.2 95 5 0.5 11 11 1026.9 0.2 12.4 24.0 31.3 81.5 64.1 216.4
27 06:20 0.5 95 4.77 -0.2 11 11 1026.5 0.2 11.9 23.8 30.6 79.6 61.5 207.2
27 06:10 0.3 95 4.71 -0.4 11 11 1026.3 0.2 11.8 23.8 30.4 79.1 60.9 204.8
27 06:00 0.3 95 4.71 -0.4 9 11 1026.3 0.2 11.8 23.8 30.4 79.1 60.9 204.8
27 05:50 0.5 94 4.72 -0.4 9 11 1026.1 0.2 11.8 23.7 30.4 79.0 60.8 204.7
27 05:40 0.6 94 4.75 -0.3 9 11 1026 0.2 11.9 23.7 30.5 79.2 61.2 205.9
27 05:30 0.9 94 4.85 0 11 11 1025.9 0.2 12.1 23.8 30.8 80.0 62.3 209.9
27 05:10 1.4 94 5.02 0.5 9 11 1025.5 0.2 12.4 23.9 31.3 81.4 64.2 216.6
27 04:40 3.1 94 5.63 2.2 9 11 1025.1 0.2 13.7 24.5 33.1 86.2 71.0 240.8
27 04:30 3.4 94 5.75 2.5 11 11 1025.2 0.2 13.9 24.6 33.5 87.3 72.4 245.7
27 04:20 3.5 94 5.79 2.6 11 11 1025.1 0.2 14.0 24.6 33.6 87.6 72.8 247.3
27 04:10 3.3 94 5.71 2.4 9 11 1025 0.2 13.8 24.6 33.3 86.9 71.9 244.0
27 04:00 2.9 94 5.56 2 9 11 1025.1 0.2 13.5 24.4 32.9 85.7 70.2 238.1
27 03:50 2.5 94 5.41 1.6 9 9 1025 0.2 13.2 24.3 32.4 84.5 68.5 232.0
27 03:40 2.1 94 5.26 1.2 11 11 1024.9 0.2 12.9 24.1 32.0 83.2 66.8 226.0
27 03:30 1.8 94 5.16 0.9 11 13 1025 0.2 12.7 24.0 31.7 82.4 65.7 222.1
27 03:20 1.7 93 5.07 0.7 11 11 1024.8 0.2 12.5 23.9 31.3 81.5 64.6 218.0
27 03:10 1.9 93 5.14 0.9 9 9 1024.8 0.2 12.6 24.0 31.5 82.1 65.3 220.8
27 03:00 1.9 93 5.14 0.9 7 9 1024.9 0.2 12.6 24.0 31.5 82.1 65.3 220.8
27 02:50 2.1 93 5.21 1.1 7 7 1024.8 0.2 12.8 24.0 31.7 82.6 66.1 223.6
27 02:40 1.9 93 5.14 0.9 9 9 1024.8 0.2 12.6 24.0 31.5 82.1 65.3 220.8
27 02:30 1.8 93 5.1 0.8 7 9 1024.9 0.2 12.6 23.9 31.4 81.8 64.9 219.2
27 02:20 1.6 93 5.03 0.6 7 9 1024.8 0.2 12.4 23.9 31.2 81.2 64.1 216.4
27 02:10 1.5 93 5 0.5 9 9 1024.7 0.2 12.4 23.9 31.1 81.0 63.8 215.2
27 02:00 1.6 93 5.03 0.6 9 11 1024.8 0.2 12.4 23.9 31.2 81.2 64.1 216.4
27 01:50 1.6 93 5.03 0.6 7 9 1024.7 0.2 12.4 23.9 31.2 81.2 64.1 216.4
27 01:40 1.6 93 5.03 0.6 9 9 1024.7 0.2 12.4 23.9 31.2 81.2 64.1 216.4
27 01:30 1.7 93 5.07 0.7 11 13 1024.9 0.2 12.5 23.9 31.3 81.5 64.6 218.0
27 01:20 1.8 93 5.1 0.8 13 13 1024.8 0.2 12.6 23.9 31.4 81.8 64.9 219.2
27 01:10 1.7 92 5.01 0.5 13 13 1024.9 0.2 12.4 23.8 31.1 80.9 63.7 215.2
27 01:00 2.2 92 5.19 1 9 11 1025 0.2 12.7 24.0 31.6 82.3 65.8 222.4
27 00:50 2.3 93 5.28 1.3 7 9 1025.1 0.2 12.9 24.1 32.0 83.2 66.9 226.4
27 00:40 2.1 93 5.21 1.1 9 11 1025.1 0.2 12.8 24.1 31.8 82.7 66.1 223.6
27 00:30 1.9 93 5.14 0.9 13 13 1025.1 0.2 12.6 24.0 31.6 82.1 65.4 220.9
27 00:20 1.7 92 5.01 0.5 13 13 1025 0.2 12.4 23.8 31.1 80.9 63.8 215.2
27 00:10 1.9 92 5.08 0.7 15 15 1025 0.2 12.5 23.9 31.3 81.4 64.5 218.0
27 00:00 2 92 5.12 0.8 13 15 1025.2 0.2 12.6 23.9 31.4 81.8 65.0 219.6
26 23:50 2.1 92 5.15 0.9 15 15 1025.1 0.2 12.7 24.0 31.5 82.0 65.3 220.8
26 23:40 2.3 91 5.17 1 13 15 1025.1 0.2 12.7 23.9 31.5 82.0 65.4 221.2
26 23:30 2.5 91 5.24 1.2 13 17 1025.3 0.2 12.8 24.0 31.7 82.6 66.2 224.0
26 23:20 2.7 91 5.31 1.4 13 15 1025.2 0.2 13.0 24.1 31.9 83.2 67.0 226.7
26 23:10 2.9 90 5.32 1.4 13 13 1025.2 0.2 13.0 24.0 31.9 83.0 67.0 226.6
26 23:00 3.1 90 5.39 1.6 11 13 1025.3 0.2 13.1 24.1 32.1 83.6 67.7 229.4
26 22:50 3.1 90 5.39 1.6 11 11 1025.3 0.2 13.1 24.1 32.1 83.6 67.7 229.4
26 22:40 3.4 90 5.5 1.9 13 13 1025.3 0.2 13.4 24.2 32.4 84.5 69.0 233.7
26 22:30 3.4 90 5.5 1.9 13 13 1025.4 0.2 13.4 24.2 32.4 84.5 69.0 233.8
26 22:20 3.4 89 5.44 1.8 13 13 1025.3 0.2 13.2 24.1 32.2 83.8 68.2 230.9
26 22:10 3.7 89 5.55 2.1 15 15 1025.2 0.2 13.5 24.2 32.5 84.7 69.4 235.2
26 22:00 3.9 89 5.63 2.3 11 13 1025.3 0.2 13.6 24.3 32.8 85.4 70.3 238.4
26 21:50 3.6 89 5.51 2 11 13 1025.2 0.2 13.4 24.2 32.4 84.4 68.9 233.6
26 21:40 3.7 88 5.49 1.9 11 13 1025.2 0.2 13.3 24.1 32.3 84.1 68.6 232.4
26 21:30 3.9 88 5.56 2.1 11 13 1025.3 0.2 13.5 24.2 32.5 84.6 69.3 235.1
26 21:20 3.9 87 5.5 1.9 11 13 1025.3 0.2 13.4 24.1 32.2 84.0 68.5 232.3
26 21:10 4.2 86 5.55 2.1 13 13 1025.2 0.2 13.4 24.1 32.3 84.2 68.9 233.7
26 21:00 4.6 84 5.56 2.1 13 17 1025.3 0.2 13.5 24.0 32.2 83.9 68.7 233.0
26 20:50 5.7 82 5.84 2.9 15 17 1025.2 0.2 14.0 24.1 32.9 85.7 71.5 242.8
26 20:40 6 80 5.81 2.8 9 9 1025 0.2 13.9 24.0 32.6 85.0 70.8 240.5
26 20:30 6.6 81 6.12 3.6 11 13 1025 0.2 14.6 24.3 33.6 87.7 74.3 253.0
26 20:20 6.7 82 6.23 3.9 11 11 1024.8 0.2 14.8 24.5 34.0 88.8 75.7 257.8
26 20:10 6.6 81 6.12 3.6 11 11 1024.8 0.2 14.6 24.3 33.6 87.7 74.3 253.0
26 20:00 6.7 82 6.23 3.9 11 13 1024.8 0.2 14.8 24.5 34.0 88.8 75.7 257.8
26 19:50 6.9 82 6.32 4 11 13 1024.6 0.2 15.0 24.6 34.3 89.5 76.7 261.4
26 19:40 6.7 84 6.39 4.2 13 15 1024.5 0.2 15.2 24.7 34.7 90.5 77.8 265.3
26 19:30 6.2 83 6.11 3.5 15 17 1024.4 0.2 14.6 24.4 33.7 88.0 74.5 253.7
26 19:20 6.5 81 6.08 3.5 15 15 1024.3 0.2 14.5 24.3 33.5 87.3 73.9 251.3

Last Refresh: 27-Sep-2020 12:30:40

Most of the information presented on this site is sourced from the Bureau of Meteorology.  Copyright in all material sourced from the Bureau of Meteorology resides with the Commonwealth of Australia.